sensor_id;sensor_type;location;lat;lon;timestamp;temperature;humidity
38860;DHT22;24609;48.316;16.174;2023-07-30T00:01:49;21.80;99.90
38860;DHT22;24609;48.316;16.174;2023-07-30T00:04:15;21.80;99.90
38860;DHT22;24609;48.316;16.174;2023-07-30T00:06:40;21.80;99.90
38860;DHT22;24609;48.316;16.174;2023-07-30T00:09:06;21.70;99.90
38860;DHT22;24609;48.316;16.174;2023-07-30T00:11:32;21.70;99.90
38860;DHT22;24609;48.316;16.174;2023-07-30T00:13:57;21.70;99.90
38860;DHT22;24609;48.316;16.174;2023-07-30T00:16:26;21.60;99.90
38860;DHT22;24609;48.316;16.174;2023-07-30T00:18:52;21.60;99.90
38860;DHT22;24609;48.316;16.174;2023-07-30T00:21:17;21.60;99.90
38860;DHT22;24609;48.316;16.174;2023-07-30T00:23:43;21.60;99.90
38860;DHT22;24609;48.316;16.174;2023-07-30T00:26:08;21.60;99.90
38860;DHT22;24609;48.316;16.174;2023-07-30T00:28:34;21.50;99.90
38860;DHT22;24609;48.316;16.174;2023-07-30T00:31:00;21.50;99.90
38860;DHT22;24609;48.316;16.174;2023-07-30T00:33:25;21.50;99.90
38860;DHT22;24609;48.316;16.174;2023-07-30T00:35:52;21.50;99.90
38860;DHT22;24609;48.316;16.174;2023-07-30T00:38:18;21.50;99.90
38860;DHT22;24609;48.316;16.174;2023-07-30T00:40:44;21.40;99.90
38860;DHT22;24609;48.316;16.174;2023-07-30T00:43:10;21.40;99.90
38860;DHT22;24609;48.316;16.174;2023-07-30T00:45:36;21.40;99.90
38860;DHT22;24609;48.316;16.174;2023-07-30T00:48:04;21.30;99.90
38860;DHT22;24609;48.316;16.174;2023-07-30T00:50:30;21.30;99.90
38860;DHT22;24609;48.316;16.174;2023-07-30T00:52:56;21.30;99.90
38860;DHT22;24609;48.316;16.174;2023-07-30T00:55:22;21.30;99.90
38860;DHT22;24609;48.316;16.174;2023-07-30T00:57:48;21.30;99.90
38860;DHT22;24609;48.316;16.174;2023-07-30T01:00:14;21.30;99.90
38860;DHT22;24609;48.316;16.174;2023-07-30T01:02:40;21.30;99.90
38860;DHT22;24609;48.316;16.174;2023-07-30T01:05:06;21.40;99.90
38860;DHT22;24609;48.316;16.174;2023-07-30T01:07:32;21.40;99.90
38860;DHT22;24609;48.316;16.174;2023-07-30T01:09:59;21.30;99.90
38860;DHT22;24609;48.316;16.174;2023-07-30T01:12:26;21.40;99.90
38860;DHT22;24609;48.316;16.174;2023-07-30T01:14:54;21.40;99.90
38860;DHT22;24609;48.316;16.174;2023-07-30T01:17:21;21.40;99.90
38860;DHT22;24609;48.316;16.174;2023-07-30T01:19:48;21.30;99.90
38860;DHT22;24609;48.316;16.174;2023-07-30T01:22:15;21.30;99.90
38860;DHT22;24609;48.316;16.174;2023-07-30T01:24:41;21.30;99.90
38860;DHT22;24609;48.316;16.174;2023-07-30T01:27:08;21.30;99.90
38860;DHT22;24609;48.316;16.174;2023-07-30T01:29:50;21.30;99.90
38860;DHT22;24609;48.316;16.174;2023-07-30T01:32:17;21.20;99.90
38860;DHT22;24609;48.316;16.174;2023-07-30T01:34:47;21.20;99.90
38860;DHT22;24609;48.316;16.174;2023-07-30T01:37:14;21.30;99.90
38860;DHT22;24609;48.316;16.174;2023-07-30T01:39:40;21.30;99.90
38860;DHT22;24609;48.316;16.174;2023-07-30T01:42:08;21.30;99.90
38860;DHT22;24609;48.316;16.174;2023-07-30T01:44:33;21.30;99.90
38860;DHT22;24609;48.316;16.174;2023-07-30T01:46:59;21.30;99.90
38860;DHT22;24609;48.316;16.174;2023-07-30T01:49:24;21.30;99.90
38860;DHT22;24609;48.316;16.174;2023-07-30T01:51:50;21.30;99.90
38860;DHT22;24609;48.316;16.174;2023-07-30T01:54:16;21.30;99.90
38860;DHT22;24609;48.316;16.174;2023-07-30T01:56:41;21.20;99.90
38860;DHT22;24609;48.316;16.174;2023-07-30T01:59:07;21.20;99.90
38860;DHT22;24609;48.316;16.174;2023-07-30T02:01:33;21.10;99.90
38860;DHT22;24609;48.316;16.174;2023-07-30T02:03:58;21.10;99.90
38860;DHT22;24609;48.316;16.174;2023-07-30T02:06:24;21.10;99.90
38860;DHT22;24609;48.316;16.174;2023-07-30T02:08:49;21.10;99.90
38860;DHT22;24609;48.316;16.174;2023-07-30T02:11:15;21.20;99.90
38860;DHT22;24609;48.316;16.174;2023-07-30T02:13:41;21.20;99.90
38860;DHT22;24609;48.316;16.174;2023-07-30T02:16:07;21.20;99.90
38860;DHT22;24609;48.316;16.174;2023-07-30T02:18:33;21.20;99.90
38860;DHT22;24609;48.316;16.174;2023-07-30T02:20:59;21.20;99.90
38860;DHT22;24609;48.316;16.174;2023-07-30T02:23:24;21.20;99.90
38860;DHT22;24609;48.316;16.174;2023-07-30T02:25:50;21.20;99.90
38860;DHT22;24609;48.316;16.174;2023-07-30T02:28:16;21.20;99.90
38860;DHT22;24609;48.316;16.174;2023-07-30T02:30:42;21.10;99.90
38860;DHT22;24609;48.316;16.174;2023-07-30T02:33:07;21.10;99.90
38860;DHT22;24609;48.316;16.174;2023-07-30T02:35:33;20.90;99.90
38860;DHT22;24609;48.316;16.174;2023-07-30T02:37:59;20.90;99.90
38860;DHT22;24609;48.316;16.174;2023-07-30T02:40:24;20.80;99.90
38860;DHT22;24609;48.316;16.174;2023-07-30T02:42:50;20.70;99.90
38860;DHT22;24609;48.316;16.174;2023-07-30T02:45:16;20.70;99.90
38860;DHT22;24609;48.316;16.174;2023-07-30T02:47:42;20.70;99.90
38860;DHT22;24609;48.316;16.174;2023-07-30T02:50:08;20.60;99.90
38860;DHT22;24609;48.316;16.174;2023-07-30T02:52:34;20.60;99.90
38860;DHT22;24609;48.316;16.174;2023-07-30T02:55:00;20.60;99.90
38860;DHT22;24609;48.316;16.174;2023-07-30T02:57:25;20.60;99.90
38860;DHT22;24609;48.316;16.174;2023-07-30T02:59:51;20.70;99.90
38860;DHT22;24609;48.316;16.174;2023-07-30T03:02:17;20.70;99.90
38860;DHT22;24609;48.316;16.174;2023-07-30T03:04:42;20.70;99.90
38860;DHT22;24609;48.316;16.174;2023-07-30T03:07:09;20.70;99.90
38860;DHT22;24609;48.316;16.174;2023-07-30T03:09:35;20.70;99.90
38860;DHT22;24609;48.316;16.174;2023-07-30T03:12:00;20.70;99.90
38860;DHT22;24609;48.316;16.174;2023-07-30T03:14:26;20.70;99.90
38860;DHT22;24609;48.316;16.174;2023-07-30T03:16:52;20.70;99.90
38860;DHT22;24609;48.316;16.174;2023-07-30T03:19:18;20.70;99.90
38860;DHT22;24609;48.316;16.174;2023-07-30T03:21:43;20.70;99.90
38860;DHT22;24609;48.316;16.174;2023-07-30T03:24:09;20.70;99.90
38860;DHT22;24609;48.316;16.174;2023-07-30T03:26:35;20.70;99.90
38860;DHT22;24609;48.316;16.174;2023-07-30T03:29:00;20.70;99.90
38860;DHT22;24609;48.316;16.174;2023-07-30T03:31:26;20.70;99.90
38860;DHT22;24609;48.316;16.174;2023-07-30T03:33:54;20.70;99.90
38860;DHT22;24609;48.316;16.174;2023-07-30T03:36:19;20.70;99.90
38860;DHT22;24609;48.316;16.174;2023-07-30T03:38:45;20.70;99.90
38860;DHT22;24609;48.316;16.174;2023-07-30T03:41:11;20.70;99.90
38860;DHT22;24609;48.316;16.174;2023-07-30T03:43:37;20.60;99.90
38860;DHT22;24609;48.316;16.174;2023-07-30T03:46:02;20.70;99.90
38860;DHT22;24609;48.316;16.174;2023-07-30T03:48:28;20.70;99.90
38860;DHT22;24609;48.316;16.174;2023-07-30T03:50:55;20.60;99.90
38860;DHT22;24609;48.316;16.174;2023-07-30T03:53:20;20.60;99.90
38860;DHT22;24609;48.316;16.174;2023-07-30T03:55:46;20.60;99.90
38860;DHT22;24609;48.316;16.174;2023-07-30T03:58:12;20.60;99.90
38860;DHT22;24609;48.316;16.174;2023-07-30T04:00:38;20.70;99.90
38860;DHT22;24609;48.316;16.174;2023-07-30T04:03:03;20.70;99.90
38860;DHT22;24609;48.316;16.174;2023-07-30T04:05:30;20.70;99.90
38860;DHT22;24609;48.316;16.174;2023-07-30T04:07:56;20.70;99.90
38860;DHT22;24609;48.316;16.174;2023-07-30T04:10:21;20.80;99.90
38860;DHT22;24609;48.316;16.174;2023-07-30T04:12:47;20.80;99.90
38860;DHT22;24609;48.316;16.174;2023-07-30T04:15:14;20.80;99.90
38860;DHT22;24609;48.316;16.174;2023-07-30T04:17:40;20.80;99.90
38860;DHT22;24609;48.316;16.174;2023-07-30T04:20:06;20.80;99.90
38860;DHT22;24609;48.316;16.174;2023-07-30T04:22:32;20.90;99.90
38860;DHT22;24609;48.316;16.174;2023-07-30T04:24:58;21.00;99.90
38860;DHT22;24609;48.316;16.174;2023-07-30T04:27:23;21.00;99.90
38860;DHT22;24609;48.316;16.174;2023-07-30T04:29:49;21.10;99.90
38860;DHT22;24609;48.316;16.174;2023-07-30T04:32:14;21.10;99.90
38860;DHT22;24609;48.316;16.174;2023-07-30T04:34:40;21.10;99.90
38860;DHT22;24609;48.316;16.174;2023-07-30T04:37:06;21.10;99.90
38860;DHT22;24609;48.316;16.174;2023-07-30T04:39:32;21.20;99.90
38860;DHT22;24609;48.316;16.174;2023-07-30T04:41:58;21.20;99.90
38860;DHT22;24609;48.316;16.174;2023-07-30T04:44:24;21.20;99.90
38860;DHT22;24609;48.316;16.174;2023-07-30T04:46:50;21.20;99.90
38860;DHT22;24609;48.316;16.174;2023-07-30T04:49:15;21.30;99.90
38860;DHT22;24609;48.316;16.174;2023-07-30T04:51:41;21.40;99.90
38860;DHT22;24609;48.316;16.174;2023-07-30T04:54:07;21.40;99.90
38860;DHT22;24609;48.316;16.174;2023-07-30T04:56:32;21.40;99.90
38860;DHT22;24609;48.316;16.174;2023-07-30T04:58:58;21.40;99.90
38860;DHT22;24609;48.316;16.174;2023-07-30T05:01:24;21.40;99.90
38860;DHT22;24609;48.316;16.174;2023-07-30T05:03:50;21.50;99.90
38860;DHT22;24609;48.316;16.174;2023-07-30T05:06:16;21.50;99.90
38860;DHT22;24609;48.316;16.174;2023-07-30T05:08:41;21.60;99.90
38860;DHT22;24609;48.316;16.174;2023-07-30T05:11:07;21.60;99.90
38860;DHT22;24609;48.316;16.174;2023-07-30T05:13:33;21.70;99.90
38860;DHT22;24609;48.316;16.174;2023-07-30T05:15:59;21.60;99.90
38860;DHT22;24609;48.316;16.174;2023-07-30T05:18:24;21.60;99.90
38860;DHT22;24609;48.316;16.174;2023-07-30T05:20:50;21.70;99.90
38860;DHT22;24609;48.316;16.174;2023-07-30T05:23:16;21.70;99.90
38860;DHT22;24609;48.316;16.174;2023-07-30T05:25:41;21.80;99.90
38860;DHT22;24609;48.316;16.174;2023-07-30T05:28:07;21.80;99.90
38860;DHT22;24609;48.316;16.174;2023-07-30T05:30:33;21.80;99.90
38860;DHT22;24609;48.316;16.174;2023-07-30T05:32:58;21.80;99.90
38860;DHT22;24609;48.316;16.174;2023-07-30T05:35:24;21.90;99.90
38860;DHT22;24609;48.316;16.174;2023-07-30T05:37:50;21.90;99.90
38860;DHT22;24609;48.316;16.174;2023-07-30T05:40:15;21.90;99.90
38860;DHT22;24609;48.316;16.174;2023-07-30T05:42:41;21.90;99.90
38860;DHT22;24609;48.316;16.174;2023-07-30T05:45:07;22.00;99.90
38860;DHT22;24609;48.316;16.174;2023-07-30T05:47:33;22.00;99.90
38860;DHT22;24609;48.316;16.174;2023-07-30T05:49:59;22.00;99.90
38860;DHT22;24609;48.316;16.174;2023-07-30T05:52:25;22.00;99.90
38860;DHT22;24609;48.316;16.174;2023-07-30T05:54:50;22.00;99.90
38860;DHT22;24609;48.316;16.174;2023-07-30T05:57:16;22.00;99.90
38860;DHT22;24609;48.316;16.174;2023-07-30T05:59:41;22.00;99.90
38860;DHT22;24609;48.316;16.174;2023-07-30T06:02:07;22.00;99.90
38860;DHT22;24609;48.316;16.174;2023-07-30T06:04:33;21.90;99.90
38860;DHT22;24609;48.316;16.174;2023-07-30T06:07:03;21.80;99.90
38860;DHT22;24609;48.316;16.174;2023-07-30T06:09:28;21.70;99.90
38860;DHT22;24609;48.316;16.174;2023-07-30T06:11:56;21.60;99.90
38860;DHT22;24609;48.316;16.174;2023-07-30T06:14:22;21.30;99.90
38860;DHT22;24609;48.316;16.174;2023-07-30T06:16:48;21.10;99.90
38860;DHT22;24609;48.316;16.174;2023-07-30T06:19:13;21.00;99.90
38860;DHT22;24609;48.316;16.174;2023-07-30T06:21:39;21.00;99.90
38860;DHT22;24609;48.316;16.174;2023-07-30T06:24:04;20.90;99.90
38860;DHT22;24609;48.316;16.174;2023-07-30T06:26:30;21.00;99.90
38860;DHT22;24609;48.316;16.174;2023-07-30T06:28:56;20.90;99.90
38860;DHT22;24609;48.316;16.174;2023-07-30T06:31:22;20.90;99.90
38860;DHT22;24609;48.316;16.174;2023-07-30T06:33:48;20.90;99.90
38860;DHT22;24609;48.316;16.174;2023-07-30T06:36:13;21.00;99.90
38860;DHT22;24609;48.316;16.174;2023-07-30T06:38:39;21.10;99.90
38860;DHT22;24609;48.316;16.174;2023-07-30T06:41:05;21.00;99.90
38860;DHT22;24609;48.316;16.174;2023-07-30T06:43:30;20.90;99.90
38860;DHT22;24609;48.316;16.174;2023-07-30T06:45:56;20.90;99.90
38860;DHT22;24609;48.316;16.174;2023-07-30T06:48:22;20.80;99.90
38860;DHT22;24609;48.316;16.174;2023-07-30T06:50:48;20.70;99.90
38860;DHT22;24609;48.316;16.174;2023-07-30T06:53:13;20.70;99.90
38860;DHT22;24609;48.316;16.174;2023-07-30T06:55:39;20.60;99.90
38860;DHT22;24609;48.316;16.174;2023-07-30T06:58:05;20.50;99.90
38860;DHT22;24609;48.316;16.174;2023-07-30T07:00:30;20.50;99.90
38860;DHT22;24609;48.316;16.174;2023-07-30T07:02:56;20.50;99.90
38860;DHT22;24609;48.316;16.174;2023-07-30T07:05:22;20.30;99.90
38860;DHT22;24609;48.316;16.174;2023-07-30T07:07:47;20.20;99.90
38860;DHT22;24609;48.316;16.174;2023-07-30T07:10:13;20.20;99.90
38860;DHT22;24609;48.316;16.174;2023-07-30T07:12:40;20.20;99.90
38860;DHT22;24609;48.316;16.174;2023-07-30T07:15:06;20.10;99.90
38860;DHT22;24609;48.316;16.174;2023-07-30T07:17:32;20.10;99.90
38860;DHT22;24609;48.316;16.174;2023-07-30T07:19:58;20.20;99.90
38860;DHT22;24609;48.316;16.174;2023-07-30T07:22:24;20.40;99.90
38860;DHT22;24609;48.316;16.174;2023-07-30T07:24:51;20.50;99.90
38860;DHT22;24609;48.316;16.174;2023-07-30T07:27:20;20.60;99.90
38860;DHT22;24609;48.316;16.174;2023-07-30T07:29:46;20.30;99.90
38860;DHT22;24609;48.316;16.174;2023-07-30T07:32:12;20.00;99.90
38860;DHT22;24609;48.316;16.174;2023-07-30T07:34:37;20.10;99.90
38860;DHT22;24609;48.316;16.174;2023-07-30T07:37:03;20.00;99.90
38860;DHT22;24609;48.316;16.174;2023-07-30T07:39:29;20.50;99.90
38860;DHT22;24609;48.316;16.174;2023-07-30T07:41:55;20.80;99.90
38860;DHT22;24609;48.316;16.174;2023-07-30T07:44:21;21.00;99.90
38860;DHT22;24609;48.316;16.174;2023-07-30T07:46:47;21.00;99.90
38860;DHT22;24609;48.316;16.174;2023-07-30T07:49:13;21.10;99.90
38860;DHT22;24609;48.316;16.174;2023-07-30T07:51:39;21.20;99.90
38860;DHT22;24609;48.316;16.174;2023-07-30T07:54:05;21.30;99.90
38860;DHT22;24609;48.316;16.174;2023-07-30T07:56:31;21.30;99.90
38860;DHT22;24609;48.316;16.174;2023-07-30T07:58:57;21.10;99.90
38860;DHT22;24609;48.316;16.174;2023-07-30T08:01:23;21.00;99.90
38860;DHT22;24609;48.316;16.174;2023-07-30T08:03:48;20.70;99.90
38860;DHT22;24609;48.316;16.174;2023-07-30T08:06:14;20.60;99.90
38860;DHT22;24609;48.316;16.174;2023-07-30T08:08:40;20.60;99.90
38860;DHT22;24609;48.316;16.174;2023-07-30T08:11:06;20.40;99.90
38860;DHT22;24609;48.316;16.174;2023-07-30T08:13:33;20.30;99.90
38860;DHT22;24609;48.316;16.174;2023-07-30T08:15:58;20.50;99.90
38860;DHT22;24609;48.316;16.174;2023-07-30T08:18:24;21.00;99.90
38860;DHT22;24609;48.316;16.174;2023-07-30T08:20:50;21.40;99.90
38860;DHT22;24609;48.316;16.174;2023-07-30T08:23:16;22.00;99.90
38860;DHT22;24609;48.316;16.174;2023-07-30T08:25:41;22.60;99.90
38860;DHT22;24609;48.316;16.174;2023-07-30T08:28:07;22.60;99.90
38860;DHT22;24609;48.316;16.174;2023-07-30T08:30:33;23.60;99.90
38860;DHT22;24609;48.316;16.174;2023-07-30T08:32:59;24.50;99.90
38860;DHT22;24609;48.316;16.174;2023-07-30T08:35:24;24.80;99.90
38860;DHT22;24609;48.316;16.174;2023-07-30T08:37:52;24.70;99.90
38860;DHT22;24609;48.316;16.174;2023-07-30T08:40:18;23.70;99.90
38860;DHT22;24609;48.316;16.174;2023-07-30T08:42:44;23.60;99.90
38860;DHT22;24609;48.316;16.174;2023-07-30T08:45:09;23.40;99.90
38860;DHT22;24609;48.316;16.174;2023-07-30T08:47:35;23.60;99.90
38860;DHT22;24609;48.316;16.174;2023-07-30T08:50:01;24.20;99.90
38860;DHT22;24609;48.316;16.174;2023-07-30T08:52:29;27.00;99.90
38860;DHT22;24609;48.316;16.174;2023-07-30T08:54:56;29.30;99.90
38860;DHT22;24609;48.316;16.174;2023-07-30T08:57:24;28.20;99.90
38860;DHT22;24609;48.316;16.174;2023-07-30T08:59:57;26.60;99.90
38860;DHT22;24609;48.316;16.174;2023-07-30T09:02:52;28.10;99.90
38860;DHT22;24609;48.316;16.174;2023-07-30T09:05:20;29.50;99.90
38860;DHT22;24609;48.316;16.174;2023-07-30T09:07:46;30.60;96.70
38860;DHT22;24609;48.316;16.174;2023-07-30T09:10:12;29.90;97.70
38860;DHT22;24609;48.316;16.174;2023-07-30T09:12:39;27.60;99.90
38860;DHT22;24609;48.316;16.174;2023-07-30T09:15:06;27.90;99.90
38860;DHT22;24609;48.316;16.174;2023-07-30T09:17:33;27.50;99.90
38860;DHT22;24609;48.316;16.174;2023-07-30T09:20:00;26.20;99.90
38860;DHT22;24609;48.316;16.174;2023-07-30T09:24:53;26.20;99.90
38860;DHT22;24609;48.316;16.174;2023-07-30T09:27:23;26.20;99.90
38860;DHT22;24609;48.316;16.174;2023-07-30T09:29:58;27.00;99.90
38860;DHT22;24609;48.316;16.174;2023-07-30T09:32:27;26.00;99.90
38860;DHT22;24609;48.316;16.174;2023-07-30T09:34:53;26.10;99.90
38860;DHT22;24609;48.316;16.174;2023-07-30T09:37:19;27.10;99.30
38860;DHT22;24609;48.316;16.174;2023-07-30T09:39:48;26.80;99.90
38860;DHT22;24609;48.316;16.174;2023-07-30T09:42:14;26.20;99.90
38860;DHT22;24609;48.316;16.174;2023-07-30T09:44:39;27.30;99.90
38860;DHT22;24609;48.316;16.174;2023-07-30T09:47:09;27.50;99.90
38860;DHT22;24609;48.316;16.174;2023-07-30T09:49:39;27.20;99.90
38860;DHT22;24609;48.316;16.174;2023-07-30T09:52:05;26.60;99.90
38860;DHT22;24609;48.316;16.174;2023-07-30T09:54:32;26.70;99.90
38860;DHT22;24609;48.316;16.174;2023-07-30T09:56:58;28.40;98.70
38860;DHT22;24609;48.316;16.174;2023-07-30T09:59:24;31.60;95.40
38860;DHT22;24609;48.316;16.174;2023-07-30T10:01:50;35.60;80.60
38860;DHT22;24609;48.316;16.174;2023-07-30T10:04:21;32.20;81.00
38860;DHT22;24609;48.316;16.174;2023-07-30T10:07:04;29.80;91.00
38860;DHT22;24609;48.316;16.174;2023-07-30T10:09:37;28.40;94.90
38860;DHT22;24609;48.316;16.174;2023-07-30T10:12:10;26.40;99.90
38860;DHT22;24609;48.316;16.174;2023-07-30T10:14:36;24.80;99.90
38860;DHT22;24609;48.316;16.174;2023-07-30T10:17:02;23.90;99.90
38860;DHT22;24609;48.316;16.174;2023-07-30T10:19:28;23.50;99.90
38860;DHT22;24609;48.316;16.174;2023-07-30T10:22:19;22.90;99.90
38860;DHT22;24609;48.316;16.174;2023-07-30T10:24:57;21.90;99.90
38860;DHT22;24609;48.316;16.174;2023-07-30T10:27:25;21.50;99.90
38860;DHT22;24609;48.316;16.174;2023-07-30T10:33:01;21.80;99.90
38860;DHT22;24609;48.316;16.174;2023-07-30T10:35:44;22.40;99.90
38860;DHT22;24609;48.316;16.174;2023-07-30T10:40:41;22.70;99.90
38860;DHT22;24609;48.316;16.174;2023-07-30T10:43:16;23.10;99.90
38860;DHT22;24609;48.316;16.174;2023-07-30T10:45:49;23.00;99.90
38860;DHT22;24609;48.316;16.174;2023-07-30T10:48:16;23.30;99.90
38860;DHT22;24609;48.316;16.174;2023-07-30T10:50:42;24.20;99.90
38860;DHT22;24609;48.316;16.174;2023-07-30T10:53:08;25.20;99.90
38860;DHT22;24609;48.316;16.174;2023-07-30T10:55:34;29.10;99.90
38860;DHT22;24609;48.316;16.174;2023-07-30T10:58:01;30.10;98.60
38860;DHT22;24609;48.316;16.174;2023-07-30T11:00:27;32.80;95.40
38860;DHT22;24609;48.316;16.174;2023-07-30T11:02:53;34.40;89.20
38860;DHT22;24609;48.316;16.174;2023-07-30T11:05:19;36.00;77.50
38860;DHT22;24609;48.316;16.174;2023-07-30T11:07:52;33.40;81.40
38860;DHT22;24609;48.316;16.174;2023-07-30T11:10:18;36.60;74.40
38860;DHT22;24609;48.316;16.174;2023-07-30T11:12:43;34.10;70.90
38860;DHT22;24609;48.316;16.174;2023-07-30T11:15:09;32.50;79.00
38860;DHT22;24609;48.316;16.174;2023-07-30T11:17:35;30.20;89.90
38860;DHT22;24609;48.316;16.174;2023-07-30T11:20:01;29.30;94.30
38860;DHT22;24609;48.316;16.174;2023-07-30T11:22:32;28.90;96.80
38860;DHT22;24609;48.316;16.174;2023-07-30T11:24:58;28.30;96.90
38860;DHT22;24609;48.316;16.174;2023-07-30T11:27:24;28.00;97.00
38860;DHT22;24609;48.316;16.174;2023-07-30T11:29:56;29.10;97.30
38860;DHT22;24609;48.316;16.174;2023-07-30T11:32:22;32.90;91.30
38860;DHT22;24609;48.316;16.174;2023-07-30T11:34:54;36.80;73.70
38860;DHT22;24609;48.316;16.174;2023-07-30T11:37:21;38.90;65.00
38860;DHT22;24609;48.316;16.174;2023-07-30T11:39:48;41.50;54.40
38860;DHT22;24609;48.316;16.174;2023-07-30T11:42:14;43.90;47.30
38860;DHT22;24609;48.316;16.174;2023-07-30T11:44:40;43.20;44.30
38860;DHT22;24609;48.316;16.174;2023-07-30T11:47:06;41.70;42.00
38860;DHT22;24609;48.316;16.174;2023-07-30T11:49:32;37.30;49.70
38860;DHT22;24609;48.316;16.174;2023-07-30T11:54:30;31.60;59.40
38860;DHT22;24609;48.316;16.174;2023-07-30T11:56:58;31.00;65.40
38860;DHT22;24609;48.316;16.174;2023-07-30T11:59:23;32.30;66.20
38860;DHT22;24609;48.316;16.174;2023-07-30T12:01:49;37.20;54.80
38860;DHT22;24609;48.316;16.174;2023-07-30T12:04:15;39.90;49.90
38860;DHT22;24609;48.316;16.174;2023-07-30T12:06:48;41.80;44.70
38860;DHT22;24609;48.316;16.174;2023-07-30T12:09:19;42.30;40.40
38860;DHT22;24609;48.316;16.174;2023-07-30T12:11:56;42.70;35.40
38860;DHT22;24609;48.316;16.174;2023-07-30T12:14:24;44.30;31.90
38860;DHT22;24609;48.316;16.174;2023-07-30T12:17:01;44.20;32.30
38860;DHT22;24609;48.316;16.174;2023-07-30T12:19:27;43.50;29.20
38860;DHT22;24609;48.316;16.174;2023-07-30T12:21:53;39.90;31.70
38860;DHT22;24609;48.316;16.174;2023-07-30T12:24:19;38.50;34.00
38860;DHT22;24609;48.316;16.174;2023-07-30T12:26:44;36.90;37.90
38860;DHT22;24609;48.316;16.174;2023-07-30T12:29:10;36.70;38.20
38860;DHT22;24609;48.316;16.174;2023-07-30T12:31:36;38.20;34.40
38860;DHT22;24609;48.316;16.174;2023-07-30T12:34:02;37.70;37.60
38860;DHT22;24609;48.316;16.174;2023-07-30T12:36:28;41.00;33.00
38860;DHT22;24609;48.316;16.174;2023-07-30T12:38:54;43.20;31.10
38860;DHT22;24609;48.316;16.174;2023-07-30T12:41:20;43.00;27.60
38860;DHT22;24609;48.316;16.174;2023-07-30T12:43:52;45.80;26.70
38860;DHT22;24609;48.316;16.174;2023-07-30T12:46:18;45.70;24.80
38860;DHT22;24609;48.316;16.174;2023-07-30T12:48:44;40.80;26.80
38860;DHT22;24609;48.316;16.174;2023-07-30T12:51:10;37.70;30.00
38860;DHT22;24609;48.316;16.174;2023-07-30T12:53:35;37.60;32.30
38860;DHT22;24609;48.316;16.174;2023-07-30T12:56:01;39.40;30.10
38860;DHT22;24609;48.316;16.174;2023-07-30T12:58:27;36.40;29.50
38860;DHT22;24609;48.316;16.174;2023-07-30T13:00:53;36.50;32.00
38860;DHT22;24609;48.316;16.174;2023-07-30T13:03:19;37.90;29.20
38860;DHT22;24609;48.316;16.174;2023-07-30T13:05:45;37.90;28.00
38860;DHT22;24609;48.316;16.174;2023-07-30T13:08:10;38.90;28.60
38860;DHT22;24609;48.316;16.174;2023-07-30T13:10:36;40.80;26.70
38860;DHT22;24609;48.316;16.174;2023-07-30T13:13:02;38.90;26.70
38860;DHT22;24609;48.316;16.174;2023-07-30T13:15:27;41.10;27.00
38860;DHT22;24609;48.316;16.174;2023-07-30T13:17:53;41.20;25.00
38860;DHT22;24609;48.316;16.174;2023-07-30T13:20:19;41.00;26.20
38860;DHT22;24609;48.316;16.174;2023-07-30T13:22:45;39.10;26.30
38860;DHT22;24609;48.316;16.174;2023-07-30T13:25:11;38.30;27.40
38860;DHT22;24609;48.316;16.174;2023-07-30T13:27:36;40.00;27.30
38860;DHT22;24609;48.316;16.174;2023-07-30T13:30:02;41.30;26.50
38860;DHT22;24609;48.316;16.174;2023-07-30T13:32:28;39.90;25.90
38860;DHT22;24609;48.316;16.174;2023-07-30T13:34:55;38.80;28.20
38860;DHT22;24609;48.316;16.174;2023-07-30T13:37:21;41.70;25.80
38860;DHT22;24609;48.316;16.174;2023-07-30T13:39:47;45.10;23.50
38860;DHT22;24609;48.316;16.174;2023-07-30T13:42:12;46.60;20.60
38860;DHT22;24609;48.316;16.174;2023-07-30T13:44:38;48.20;19.20
38860;DHT22;24609;48.316;16.174;2023-07-30T13:47:04;43.60;19.30
38860;DHT22;24609;48.316;16.174;2023-07-30T13:49:30;42.80;21.40
38860;DHT22;24609;48.316;16.174;2023-07-30T13:51:56;41.30;21.80
38860;DHT22;24609;48.316;16.174;2023-07-30T13:54:21;43.40;21.40
38860;DHT22;24609;48.316;16.174;2023-07-30T13:56:47;41.90;22.20
38860;DHT22;24609;48.316;16.174;2023-07-30T13:59:12;39.60;24.00
38860;DHT22;24609;48.316;16.174;2023-07-30T14:01:38;36.20;27.70
38860;DHT22;24609;48.316;16.174;2023-07-30T14:04:04;33.50;30.20
38860;DHT22;24609;48.316;16.174;2023-07-30T14:06:30;32.00;34.20
38860;DHT22;24609;48.316;16.174;2023-07-30T14:08:56;30.60;38.00
38860;DHT22;24609;48.316;16.174;2023-07-30T14:11:25;29.70;39.60
38860;DHT22;24609;48.316;16.174;2023-07-30T14:13:51;29.10;41.10
38860;DHT22;24609;48.316;16.174;2023-07-30T14:16:17;28.30;43.00
38860;DHT22;24609;48.316;16.174;2023-07-30T14:18:42;27.60;45.90
38860;DHT22;24609;48.316;16.174;2023-07-30T14:21:08;27.30;47.70
38860;DHT22;24609;48.316;16.174;2023-07-30T14:23:34;27.00;48.80
38860;DHT22;24609;48.316;16.174;2023-07-30T14:26:00;26.90;51.50
38860;DHT22;24609;48.316;16.174;2023-07-30T14:28:25;26.60;59.00
38860;DHT22;24609;48.316;16.174;2023-07-30T14:30:51;26.20;62.40
38860;DHT22;24609;48.316;16.174;2023-07-30T14:33:17;25.70;71.80
38860;DHT22;24609;48.316;16.174;2023-07-30T14:35:42;24.60;99.90
38860;DHT22;24609;48.316;16.174;2023-07-30T14:38:08;22.70;99.90
38860;DHT22;24609;48.316;16.174;2023-07-30T14:40:35;21.50;99.90
38860;DHT22;24609;48.316;16.174;2023-07-30T14:43:01;20.70;99.90
38860;DHT22;24609;48.316;16.174;2023-07-30T14:45:26;20.30;99.90
38860;DHT22;24609;48.316;16.174;2023-07-30T14:47:52;20.40;99.90
38860;DHT22;24609;48.316;16.174;2023-07-30T14:50:18;20.80;99.90
38860;DHT22;24609;48.316;16.174;2023-07-30T14:52:43;21.40;99.90
38860;DHT22;24609;48.316;16.174;2023-07-30T14:55:09;21.70;99.90
38860;DHT22;24609;48.316;16.174;2023-07-30T14:57:35;21.80;99.90
38860;DHT22;24609;48.316;16.174;2023-07-30T15:00:00;21.80;99.90
38860;DHT22;24609;48.316;16.174;2023-07-30T15:02:26;21.90;99.90
38860;DHT22;24609;48.316;16.174;2023-07-30T15:04:53;22.00;99.90
38860;DHT22;24609;48.316;16.174;2023-07-30T15:07:19;21.60;99.90
38860;DHT22;24609;48.316;16.174;2023-07-30T15:09:45;21.60;99.90
38860;DHT22;24609;48.316;16.174;2023-07-30T15:12:12;21.40;99.90
38860;DHT22;24609;48.316;16.174;2023-07-30T15:14:38;21.30;99.90
38860;DHT22;24609;48.316;16.174;2023-07-30T15:17:04;21.00;99.90
38860;DHT22;24609;48.316;16.174;2023-07-30T15:19:31;20.40;99.90
38860;DHT22;24609;48.316;16.174;2023-07-30T15:21:56;20.00;99.90